PILOTS ONLINE: 350    ATC ONLINE: 60

Location

City Arlington
Country  United States
Latitude 32° 39' 50" N
Longitude 97° 5' 39" W
Elevation 628 ft
Type Small Airport

Weather

METAR
2014/07/09 23:53
KGKY 092353Z 19007KT 10SM CLR 35/13 A2993 RMK AO2 SLP126 60001 T03500133 10361 20311 56014
TAF
2014/07/09 21:00
TAF 
      AMD KGKY 092058Z 0921/1018 16008KT P6SM VCSH SCT060 BKN250 
     FM100000 17010KT P6SM BKN250 
     FM101400 20009KT P6SM BKN250

Runways

16/34 6080 ft / 100 ft

Outbound flights

Inbound flights


Spotted incorrect airport information? Please login with your VATSIM ID.